Time;durP1;ratioP1;P1;durP2;ratioP2;P2;SDS_P1;SDS_P2;PMS_P1;PMS_P2;Temp;Humidity;BMP_temperature;BMP_pressure;BME280_temperature;BME280_humidity;BME280_pressure;Samples;Min_cycle;Max_cycle;Signal;HPM_P1;HPM_P2
2023/07/05 00:02:28;;;;;;;;;;;;;;;;;;7369195;19;1905;-62
2023/07/05 00:04:56;;;;;;;;;;;;;;;;;;7370800;19;1425;-62
2023/07/05 00:07:24;;;;;;;;;;;;;;;;;;7370514;19;1867;-62
2023/07/05 00:09:53;;;;;;;;;;;;;;;;;;7368070;19;1653;-62
2023/07/05 00:12:21;;;;;;;;;;;;;;;;;;7368723;19;1918;-61
2023/07/05 00:14:49;;;;;;;;;;;;;;;;;;7369548;19;1222;-62
2023/07/05 00:17:17;;;;;;;;;;;;;;;;;;7363966;19;1946;-62
2023/07/05 00:19:45;;;;;;;;;;;;;;;;;;7367831;19;1619;-62
2023/07/05 00:22:13;;;;;;;;;;;;;;;;;;7369051;19;1605;-62
2023/07/05 00:24:41;;;;;;;;;;;;;;;;;;7362144;19;1278;-63
2023/07/05 00:27:09;;;;;;;;;;;;;;;;;;7364488;19;1787;-62
2023/07/05 00:29:37;;;;;;;;;;;;;;;;;;7365644;19;1807;-63
2023/07/05 00:32:06;;;;;;;;;;;;;;;;;;7367462;19;1697;-61
2023/07/05 00:34:35;;;;;;;;;;;;;;;;;;7362056;19;2055;-62
2023/07/05 00:37:03;;;;;;;;;;;;;;;;;;7365691;19;1987;-62
2023/07/05 00:39:31;;;;;;;;;;;;;;;;;;7365475;19;1844;-63
2023/07/05 00:41:59;;;;;;;;;;;;;;;;;;7366703;19;1499;-63
2023/07/05 00:44:27;;;;;;;;;;;;;;;;;;7362606;19;1586;-63
2023/07/05 00:46:55;;;;;;;;;;;;;;;;;;7367297;19;1512;-62
2023/07/05 00:49:24;;;;;;;;;;;;;;;;;;7362508;19;847;-62
2023/07/05 00:51:52;;;;;;;;;;;;;;;;;;7364776;19;1686;-62
2023/07/05 00:54:22;;;;;;;;;;;;;;;;;;7370909;19;1674;-62
2023/07/05 00:56:50;;;;;;;;;;;;;;;;;;7373490;19;1861;-62
2023/07/05 00:59:18;;;;;;;;;;;;;;;;;;7371284;19;2073;-62
2023/07/05 01:01:46;;;;;;;;;;;;;;;;;;7371479;19;1891;-62
2023/07/05 01:04:15;;;;;;;;;;;;;;;;;;7371813;19;1762;-62
2023/07/05 01:06:44;;;;;;;;;;;;;;;;;;7373061;19;1652;-63
2023/07/05 01:09:12;;;;;;;;;;;;;;;;;;7371611;19;1927;-62
2023/07/05 01:11:41;;;;;;;;;;;;;;;;;;7373700;19;1625;-62
2023/07/05 01:14:10;;;;;;;;;;;;;;;;;;7370418;19;1736;-62
2023/07/05 01:16:38;;;;;;;;;;;;;;;;;;7373677;19;1747;-61
2023/07/05 01:19:06;;;;;;;;;;;;;;;;;;7367489;19;1601;-62
2023/07/05 01:21:35;;;;;;;;;;;;;;;;;;7374083;19;1476;-62
2023/07/05 01:24:03;;;;;;;;;;;;;;;;;;7367157;19;1697;-62
2023/07/05 01:26:31;;;;;;;;;;;;;;;;;;7369604;19;754;-62
2023/07/05 01:29:00;;;;;;;;;;;;;;;;;;7370130;19;1758;-61
2023/07/05 01:31:28;;;;;;;;;;;;;;;;;;7371118;19;1828;-62
2023/07/05 01:33:56;;;;;;;;;;;;;;;;;;7372092;19;1857;-62
2023/07/05 01:36:24;;;;;;;;;;;;;;;;;;7372366;19;1626;-62
2023/07/05 01:38:52;;;;;;;;;;;;;;;;;;7368207;19;1875;-63
2023/07/05 01:41:22;;;;;;;;;;;;;;;;;;7372930;19;1417;-63
2023/07/05 01:43:50;;;;;;;;;;;;;;;;;;7366926;19;1323;-63
2023/07/05 01:46:18;;;;;;;;;;;;;;;;;;7368924;19;1744;-62
2023/07/05 01:48:46;;;;;;;;;;;;;;;;;;7371317;19;1706;-63
2023/07/05 01:51:16;;;;;;;;;;;;;;;;;;7370828;19;1659;-63
2023/07/05 01:53:44;;;;;;;;;;;;;;;;;;7369428;19;1989;-62
2023/07/05 01:56:13;;;;;;;;;;;;;;;;;;7368804;19;2097;-62
2023/07/05 01:58:41;;;;;;;;;;;;;;;;;;7365256;19;1904;-62
2023/07/05 02:01:09;;;;;;;;;;;;;;;;;;7369756;19;2467;-62
2023/07/05 02:03:37;;;;;;;;;;;;;;;;;;7369324;19;1734;-62
2023/07/05 02:06:07;;;;;;;;;;;;;;;;;;7371877;19;1609;-62
2023/07/05 02:08:35;;;;;;;;;;;;;;;;;;7371923;19;1617;-63
2023/07/05 02:11:03;;;;;;;;;;;;;;;;;;7367191;19;858;-62
2023/07/05 02:13:32;;;;;;;;;;;;;;;;;;7367701;19;1356;-63
2023/07/05 02:16:00;;;;;;;;;;;;;;;;;;7371108;19;812;-62
2023/07/05 02:18:29;;;;;;;;;;;;;;;;;;7365122;19;1845;-63
2023/07/05 02:20:57;;;;;;;;;;;;;;;;;;7366784;19;827;-62
2023/07/05 02:23:25;;;;;;;;;;;;;;;;;;7367006;19;1643;-62
2023/07/05 02:25:53;;;;;;;;;;;;;;;;;;7367196;19;832;-62
2023/07/05 02:28:21;;;;;;;;;;;;;;;;;;7367469;19;933;-60
2023/07/05 02:30:49;;;;;;;;;;;;;;;;;;7367588;19;942;-62
2023/07/05 02:33:18;;;;;;;;;;;;;;;;;;7371042;19;1348;-63
2023/07/05 02:35:48;;;;;;;;;;;;;;;;;;7366636;19;841;-64
2023/07/05 02:38:16;;;;;;;;;;;;;;;;;;7365373;19;1846;-63
2023/07/05 02:40:44;;;;;;;;;;;;;;;;;;7367002;19;811;-62
2023/07/05 02:43:13;;;;;;;;;;;;;;;;;;7365109;19;1293;-61
2023/07/05 02:45:41;;;;;;;;;;;;;;;;;;7367983;19;840;-63
2023/07/05 02:48:09;;;;;;;;;;;;;;;;;;7367368;19;871;-63
2023/07/05 02:50:37;;;;;;;;;;;;;;;;;;7370661;19;913;-62
2023/07/05 02:53:06;;;;;;;;;;;;;;;;;;7367436;19;1285;-60
2023/07/05 02:55:34;;;;;;;;;;;;;;;;;;7365885;19;805;-62
2023/07/05 02:58:03;;;;;;;;;;;;;;;;;;7366627;19;1842;-63
2023/07/05 03:00:31;;;;;;;;;;;;;;;;;;7369036;19;1814;-63
2023/07/05 03:02:59;;;;;;;;;;;;;;;;;;7367380;19;1285;-62
2023/07/05 03:05:28;;;;;;;;;;;;;;;;;;7367485;19;884;-62
2023/07/05 03:07:56;;;;;;;;;;;;;;;;;;7365455;19;947;-63
2023/07/05 03:10:24;;;;;;;;;;;;;;;;;;7365674;19;733;-62
2023/07/05 03:12:53;;;;;;;;;;;;;;;;;;7365441;19;1365;-62
2023/07/05 03:15:21;;;;;;;;;;;;;;;;;;7365691;19;845;-62
2023/07/05 03:17:49;;;;;;;;;;;;;;;;;;7364387;19;1838;-62
2023/07/05 03:20:17;;;;;;;;;;;;;;;;;;7365140;19;875;-60
2023/07/05 03:22:46;;;;;;;;;;;;;;;;;;7365635;19;1313;-61
2023/07/05 03:25:14;;;;;;;;;;;;;;;;;;7365911;19;797;-61
2023/07/05 03:27:42;;;;;;;;;;;;;;;;;;7367001;19;844;-60
2023/07/05 03:30:10;;;;;;;;;;;;;;;;;;7365517;19;852;-59
2023/07/05 03:32:43;;;;;;;;;;;;;;;;;;7364361;19;1361;-61
2023/07/05 03:35:11;;;;;;;;;;;;;;;;;;7366039;19;791;-60
2023/07/05 03:37:40;;;;;;;;;;;;;;;;;;7366303;19;1841;-59
2023/07/05 03:40:08;;;;;;;;;;;;;;;;;;7366309;19;918;-60
2023/07/05 03:42:37;;;;;;;;;;;;;;;;;;7365474;19;1339;-60
2023/07/05 03:45:06;;;;;;;;;;;;;;;;;;7366411;19;855;-59
2023/07/05 03:47:34;;;;;;;;;;;;;;;;;;7366844;19;843;-60
2023/07/05 03:50:02;;;;;;;;;;;;;;;;;;7365823;19;694;-60
2023/07/05 03:52:30;;;;;;;;;;;;;;;;;;7365929;19;1254;-61
2023/07/05 03:54:58;;;;;;;;;;;;;;;;;;7366000;19;793;-59
2023/07/05 03:57:26;;;;;;;;;;;;;;;;;;7367795;19;771;-59
2023/07/05 03:59:54;;;;;;;;;;;;;;;;;;7364737;19;752;-57
2023/07/05 04:02:23;;;;;;;;;;;;;;;;;;7365864;19;1237;-58
2023/07/05 04:04:51;;;;;;;;;;;;;;;;;;7366150;19;817;-60
2023/07/05 04:07:19;;;;;;;;;;;;;;;;;;7366516;19;869;-58
2023/07/05 04:09:47;;;;;;;;;;;;;;;;;;7365089;19;825;-59
2023/07/05 04:12:15;;;;;;;;;;;;;;;;;;7365275;19;769;-59
2023/07/05 04:14:43;;;;;;;;;;;;;;;;;;7365061;19;1198;-59
2023/07/05 04:17:11;;;;;;;;;;;;;;;;;;7365688;19;808;-58
2023/07/05 04:19:39;;;;;;;;;;;;;;;;;;7361490;19;1858;-58
2023/07/05 04:22:08;;;;;;;;;;;;;;;;;;7365335;19;814;-58
2023/07/05 04:24:36;;;;;;;;;;;;;;;;;;7362717;19;1288;-58
2023/07/05 04:27:04;;;;;;;;;;;;;;;;;;7364161;19;857;-62
2023/07/05 04:29:34;;;;;;;;;;;;;;;;;;7364568;19;855;-59
2023/07/05 04:32:02;;;;;;;;;;;;;;;;;;7368344;19;1003;-59
2023/07/05 04:34:30;;;;;;;;;;;;;;;;;;7362484;19;1366;-61
2023/07/05 04:36:58;;;;;;;;;;;;;;;;;;7365342;19;834;-59
2023/07/05 04:39:26;;;;;;;;;;;;;;;;;;7361664;19;1854;-57
2023/07/05 04:41:55;;;;;;;;;;;;;;;;;;7364723;19;797;-59
2023/07/05 04:44:23;;;;;;;;;;;;;;;;;;7362072;19;1274;-60
2023/07/05 04:46:51;;;;;;;;;;;;;;;;;;7364887;19;848;-59
2023/07/05 04:49:19;;;;;;;;;;;;;;;;;;7367214;19;1633;-54
2023/07/05 04:51:48;;;;;;;;;;;;;;;;;;7367153;19;2024;-60
2023/07/05 04:54:17;;;;;;;;;;;;;;;;;;7364618;19;1269;-60
2023/07/05 04:56:45;;;;;;;;;;;;;;;;;;7366730;19;2331;-60
2023/07/05 04:59:13;;;;;;;;;;;;;;;;;;7362139;19;1852;-60
2023/07/05 05:01:41;;;;;;;;;;;;;;;;;;7368158;19;1649;-59
2023/07/05 05:04:09;;;;;;;;;;;;;;;;;;7362439;19;1347;-56
2023/07/05 05:06:37;;;;;;;;;;;;;;;;;;7365612;19;1590;-59
2023/07/05 05:09:05;;;;;;;;;;;;;;;;;;7364453;19;1750;-60
2023/07/05 05:11:34;;;;;;;;;;;;;;;;;;7367896;19;1655;-62
2023/07/05 05:14:02;;;;;;;;;;;;;;;;;;7361684;19;1352;-58
2023/07/05 05:16:30;;;;;;;;;;;;;;;;;;7363633;19;778;-57
2023/07/05 05:18:58;;;;;;;;;;;;;;;;;;7361756;19;1846;-57
2023/07/05 05:21:26;;;;;;;;;;;;;;;;;;7365058;19;1238;-58
2023/07/05 05:23:54;;;;;;;;;;;;;;;;;;7365945;19;1287;-59
2023/07/05 05:26:23;;;;;;;;;;;;;;;;;;7363824;19;801;-57
2023/07/05 05:28:51;;;;;;;;;;;;;;;;;;7367057;19;1589;-58
2023/07/05 05:31:19;;;;;;;;;;;;;;;;;;7362950;19;884;-60
2023/07/05 05:33:48;;;;;;;;;;;;;;;;;;7361400;19;1305;-57
2023/07/05 05:36:16;;;;;;;;;;;;;;;;;;7363478;19;859;-59
2023/07/05 05:38:44;;;;;;;;;;;;;;;;;;7362448;19;1830;-61
2023/07/05 05:41:12;;;;;;;;;;;;;;;;;;7369989;19;809;-58
2023/07/05 05:43:40;;;;;;;;;;;;;;;;;;7368640;19;1346;-59
2023/07/05 05:46:09;;;;;;;;;;;;;;;;;;7370165;19;761;-59
2023/07/05 05:48:37;;;;;;;;;;;;;;;;;;7369053;19;828;-59
2023/07/05 05:51:05;;;;;;;;;;;;;;;;;;7370187;19;877;-59
2023/07/05 05:53:33;;;;;;;;;;;;;;;;;;7371948;19;1543;-58
2023/07/05 05:56:01;;;;;;;;;;;;;;;;;;7374232;19;1638;-58
2023/07/05 05:58:29;;;;;;;;;;;;;;;;;;7368411;19;1841;-61
2023/07/05 06:00:58;;;;;;;;;;;;;;;;;;7372191;19;1677;-62
2023/07/05 06:03:26;;;;;;;;;;;;;;;;;;7371841;19;1379;-59
2023/07/05 06:05:54;;;;;;;;;;;;;;;;;;7370630;19;1570;-60
2023/07/05 06:08:22;;;;;;;;;;;;;;;;;;7368717;19;877;-58
2023/07/05 06:10:50;;;;;;;;;;;;;;;;;;7369835;19;773;-61
2023/07/05 06:13:18;;;;;;;;;;;;;;;;;;7369768;19;1706;-61
2023/07/05 06:15:46;;;;;;;;;;;;;;;;;;7369350;19;809;-60
2023/07/05 06:18:15;;;;;;;;;;;;;;;;;;7369868;19;1850;-60
2023/07/05 06:20:43;;;;;;;;;;;;;;;;;;7368697;19;796;-60
2023/07/05 06:23:11;;;;;;;;;;;;;;;;;;7367552;19;1281;-59
2023/07/05 06:25:39;;;;;;;;;;;;;;;;;;7368954;19;717;-59
2023/07/05 06:28:07;;;;;;;;;;;;;;;;;;7367617;19;852;-62
2023/07/05 06:30:35;;;;;;;;;;;;;;;;;;7371191;19;891;-59
2023/07/05 06:33:03;;;;;;;;;;;;;;;;;;7368147;19;1249;-59
2023/07/05 06:35:32;;;;;;;;;;;;;;;;;;7368851;19;1060;-61
2023/07/05 06:38:00;;;;;;;;;;;;;;;;;;7368526;19;856;-60
2023/07/05 06:40:28;;;;;;;;;;;;;;;;;;7365328;19;1852;-61
2023/07/05 06:42:56;;;;;;;;;;;;;;;;;;7368309;19;1245;-62
2023/07/05 06:45:30;;;;;;;;;;;;;;;;;;7366361;19;827;-62
2023/07/05 06:47:58;;;;;;;;;;;;;;;;;;7370667;19;939;-62
2023/07/05 06:50:26;;;;;;;;;;;;;;;;;;7367397;19;715;-62
2023/07/05 06:52:54;;;;;;;;;;;;;;;;;;7367221;19;1281;-61
2023/07/05 06:55:22;;;;;;;;;;;;;;;;;;7370850;19;1540;-60
2023/07/05 06:57:50;;;;;;;;;;;;;;;;;;7368247;19;785;-62
2023/07/05 07:00:19;;;;;;;;;;;;;;;;;;7364697;19;1829;-58
2023/07/05 07:02:47;;;;;;;;;;;;;;;;;;7367743;19;1341;-60
2023/07/05 07:05:15;;;;;;;;;;;;;;;;;;7371625;19;800;-62
2023/07/05 07:07:43;;;;;;;;;;;;;;;;;;7368851;19;2014;-61
2023/07/05 07:10:11;;;;;;;;;;;;;;;;;;7369313;19;1308;-61
2023/07/05 07:12:39;;;;;;;;;;;;;;;;;;7363654;19;1324;-61
2023/07/05 07:15:07;;;;;;;;;;;;;;;;;;7366573;19;852;-62
2023/07/05 07:17:36;;;;;;;;;;;;;;;;;;7368184;19;897;-62
2023/07/05 07:20:04;;;;;;;;;;;;;;;;;;7365156;19;1857;-60
2023/07/05 07:22:32;;;;;;;;;;;;;;;;;;7367738;19;1289;-60
2023/07/05 07:25:00;;;;;;;;;;;;;;;;;;7367700;19;860;-61
2023/07/05 07:27:28;;;;;;;;;;;;;;;;;;7367441;19;833;-62
2023/07/05 07:29:56;;;;;;;;;;;;;;;;;;7365995;19;1713;-63
2023/07/05 07:32:24;;;;;;;;;;;;;;;;;;7368946;19;1552;-62
2023/07/05 07:34:52;;;;;;;;;;;;;;;;;;7369058;19;1766;-62
2023/07/05 07:37:21;;;;;;;;;;;;;;;;;;7370336;19;1196;-61
2023/07/05 07:39:49;;;;;;;;;;;;;;;;;;7364423;19;1838;-58
2023/07/05 07:42:17;;;;;;;;;;;;;;;;;;7366668;19;1584;-60
2023/07/05 07:44:45;;;;;;;;;;;;;;;;;;7367302;19;1688;-62
2023/07/05 07:47:13;;;;;;;;;;;;;;;;;;7369760;19;1344;-64
2023/07/05 07:49:41;;;;;;;;;;;;;;;;;;7365951;19;787;-63
2023/07/05 07:52:11;;;;;;;;;;;;;;;;;;7366802;19;857;-63
2023/07/05 07:54:39;;;;;;;;;;;;;;;;;;7363287;19;1779;-62
2023/07/05 07:57:08;;;;;;;;;;;;;;;;;;7366828;19;840;-63
2023/07/05 07:59:40;;;;;;;;;;;;;;;;;;7367151;19;1929;-63
2023/07/05 08:02:09;;;;;;;;;;;;;;;;;;7367729;19;1677;-63
2023/07/05 08:04:38;;;;;;;;;;;;;;;;;;7366075;19;1970;-63
2023/07/05 08:07:06;;;;;;;;;;;;;;;;;;7365967;19;860;-63
2023/07/05 08:09:34;;;;;;;;;;;;;;;;;;7365923;19;802;-62
2023/07/05 08:12:03;;;;;;;;;;;;;;;;;;7366317;19;1887;-63
2023/07/05 08:14:31;;;;;;;;;;;;;;;;;;7367550;19;1511;-62
2023/07/05 08:16:59;;;;;;;;;;;;;;;;;;7366462;19;825;-63
2023/07/05 08:19:27;;;;;;;;;;;;;;;;;;7364827;19;1841;-63
2023/07/05 08:21:55;;;;;;;;;;;;;;;;;;7366203;19;896;-63
2023/07/05 08:24:23;;;;;;;;;;;;;;;;;;7362241;19;1336;-64
2023/07/05 08:26:51;;;;;;;;;;;;;;;;;;7366900;19;2081;-65
2023/07/05 08:29:19;;;;;;;;;;;;;;;;;;7366683;19;1759;-63
2023/07/05 08:31:48;;;;;;;;;;;;;;;;;;7368059;19;1567;-65
2023/07/05 08:34:16;;;;;;;;;;;;;;;;;;7365012;19;1569;-65
2023/07/05 08:36:46;;;;;;;;;;;;;;;;;;7369977;19;1478;-64
2023/07/05 08:39:14;;;;;;;;;;;;;;;;;;7365348;19;1957;-65
2023/07/05 08:41:43;;;;;;;;;;;;;;;;;;7369373;19;1376;-65
2023/07/05 08:44:11;;;;;;;;;;;;;;;;;;7363734;19;1253;-63
2023/07/05 08:46:39;;;;;;;;;;;;;;;;;;7365409;19;845;-64
2023/07/05 08:49:07;;;;;;;;;;;;;;;;;;7364584;19;843;-63
2023/07/05 08:51:35;;;;;;;;;;;;;;;;;;7364731;19;1648;-63
2023/07/05 08:54:04;;;;;;;;;;;;;;;;;;7366119;19;1554;-64
2023/07/05 08:56:32;;;;;;;;;;;;;;;;;;7368174;19;1460;-64
2023/07/05 08:59:01;;;;;;;;;;;;;;;;;;7364514;19;2066;-64
2023/07/05 09:01:29;;;;;;;;;;;;;;;;;;7368102;19;1658;-64
2023/07/05 09:03:57;;;;;;;;;;;;;;;;;;7365977;19;1640;-64
2023/07/05 09:06:25;;;;;;;;;;;;;;;;;;7366808;19;1647;-64
2023/07/05 09:08:55;;;;;;;;;;;;;;;;;;7368411;19;1407;-65
2023/07/05 09:11:25;;;;;;;;;;;;;;;;;;7364948;19;786;-64
2023/07/05 09:13:53;;;;;;;;;;;;;;;;;;7365013;19;1792;-65
2023/07/05 09:16:21;;;;;;;;;;;;;;;;;;7373182;19;1675;-63
2023/07/05 09:18:49;;;;;;;;;;;;;;;;;;7373740;19;1152;-64
2023/07/05 09:21:17;;;;;;;;;;;;;;;;;;7370408;19;1895;-64
2023/07/05 09:23:45;;;;;;;;;;;;;;;;;;7371616;19;1768;-64
2023/07/05 09:26:13;;;;;;;;;;;;;;;;;;7371425;19;840;-62
2023/07/05 09:28:41;;;;;;;;;;;;;;;;;;7370123;19;816;-64
2023/07/05 09:31:10;;;;;;;;;;;;;;;;;;7373846;19;1709;-65
2023/07/05 09:33:38;;;;;;;;;;;;;;;;;;7371760;19;1861;-67
2023/07/05 09:36:06;;;;;;;;;;;;;;;;;;7375627;19;1247;-66
2023/07/05 09:38:34;;;;;;;;;;;;;;;;;;7373251;19;1852;-66
2023/07/05 09:41:04;;;;;;;;;;;;;;;;;;7368901;19;2235;-66
2023/07/05 09:43:32;;;;;;;;;;;;;;;;;;7373067;19;1987;-67
2023/07/05 09:46:00;;;;;;;;;;;;;;;;;;7372347;19;1793;-66
2023/07/05 09:48:28;;;;;;;;;;;;;;;;;;7371252;19;1252;-66
2023/07/05 09:51:03;;;;;;;;;;;;;;;;;;7374771;19;1642;-67
2023/07/05 09:53:31;;;;;;;;;;;;;;;;;;7369262;19;1280;-67
2023/07/05 09:56:00;;;;;;;;;;;;;;;;;;7370372;19;874;-67
2023/07/05 09:58:28;;;;;;;;;;;;;;;;;;7372491;19;1754;-65
2023/07/05 10:00:56;;;;;;;;;;;;;;;;;;7370031;19;1846;-66
2023/07/05 10:03:25;;;;;;;;;;;;;;;;;;7371830;19;1616;-66
2023/07/05 10:05:53;;;;;;;;;;;;;;;;;;7367331;19;789;-66
2023/07/05 10:08:21;;;;;;;;;;;;;;;;;;7368442;19;788;-67
2023/07/05 10:10:50;;;;;;;;;;;;;;;;;;7370045;19;844;-66
2023/07/05 10:13:19;;;;;;;;;;;;;;;;;;7368936;19;1264;-66
2023/07/05 10:15:47;;;;;;;;;;;;;;;;;;7370225;19;852;-67
2023/07/05 10:18:15;;;;;;;;;;;;;;;;;;7369228;19;869;-66
2023/07/05 10:20:43;;;;;;;;;;;;;;;;;;7367947;19;1838;-67
2023/07/05 10:23:11;;;;;;;;;;;;;;;;;;7368562;19;1265;-66
2023/07/05 10:25:40;;;;;;;;;;;;;;;;;;7366794;19;1847;-65
2023/07/05 10:28:09;;;;;;;;;;;;;;;;;;7371314;19;1825;-65
2023/07/05 10:30:37;;;;;;;;;;;;;;;;;;7372427;19;1747;-66
2023/07/05 10:33:05;;;;;;;;;;;;;;;;;;7372188;19;1822;-66
2023/07/05 10:35:34;;;;;;;;;;;;;;;;;;7372544;19;1398;-67
2023/07/05 10:38:02;;;;;;;;;;;;;;;;;;7371894;19;1726;-66
2023/07/05 10:40:30;;;;;;;;;;;;;;;;;;7372057;19;1845;-66
2023/07/05 10:42:58;;;;;;;;;;;;;;;;;;7368866;19;1558;-66
2023/07/05 10:45:26;;;;;;;;;;;;;;;;;;7369969;19;2009;-66
2023/07/05 10:47:54;;;;;;;;;;;;;;;;;;7374461;19;1470;-66
2023/07/05 10:50:22;;;;;;;;;;;;;;;;;;7370616;19;1760;-67
2023/07/05 10:52:51;;;;;;;;;;;;;;;;;;7372350;19;1422;-66
2023/07/05 10:55:19;;;;;;;;;;;;;;;;;;7368877;19;818;-66
2023/07/05 10:57:49;;;;;;;;;;;;;;;;;;7371044;19;1443;-67
2023/07/05 11:00:17;;;;;;;;;;;;;;;;;;7367131;19;1853;-66
2023/07/05 11:02:45;;;;;;;;;;;;;;;;;;7371540;19;1565;-67
2023/07/05 11:05:13;;;;;;;;;;;;;;;;;;7371001;19;1654;-67
2023/07/05 11:07:41;;;;;;;;;;;;;;;;;;7370453;19;1530;-66
2023/07/05 11:10:12;;;;;;;;;;;;;;;;;;7369955;19;1548;-67
2023/07/05 11:12:41;;;;;;;;;;;;;;;;;;7369600;19;1885;-65
2023/07/05 11:15:10;;;;;;;;;;;;;;;;;;7368575;19;1683;-65
2023/07/05 11:17:38;;;;;;;;;;;;;;;;;;7372265;19;1396;-68
2023/07/05 11:20:06;;;;;;;;;;;;;;;;;;7370826;19;1867;-67
2023/07/05 11:22:34;;;;;;;;;;;;;;;;;;7372641;19;1395;-65
2023/07/05 11:25:03;;;;;;;;;;;;;;;;;;7366582;19;865;-66
2023/07/05 11:27:31;;;;;;;;;;;;;;;;;;7367744;19;822;-65
2023/07/05 11:29:59;;;;;;;;;;;;;;;;;;7367055;19;805;-63
2023/07/05 11:32:27;;;;;;;;;;;;;;;;;;7366871;19;1617;-63
2023/07/05 11:34:55;;;;;;;;;;;;;;;;;;7371313;19;1746;-65
2023/07/05 11:37:23;;;;;;;;;;;;;;;;;;7367525;19;1490;-63
2023/07/05 11:39:52;;;;;;;;;;;;;;;;;;7368820;19;2082;-64
2023/07/05 11:42:21;;;;;;;;;;;;;;;;;;7370681;19;1470;-65
2023/07/05 11:44:49;;;;;;;;;;;;;;;;;;7364659;19;1732;-63
2023/07/05 11:47:17;;;;;;;;;;;;;;;;;;7371264;19;1517;-64
2023/07/05 11:49:45;;;;;;;;;;;;;;;;;;7366973;19;899;-64
2023/07/05 11:52:13;;;;;;;;;;;;;;;;;;7367461;19;1551;-63
2023/07/05 11:54:41;;;;;;;;;;;;;;;;;;7366909;19;1584;-63
2023/07/05 11:57:10;;;;;;;;;;;;;;;;;;7368701;19;1688;-63
2023/07/05 11:59:38;;;;;;;;;;;;;;;;;;7370377;19;1460;-63
2023/07/05 12:02:07;;;;;;;;;;;;;;;;;;7366237;19;1850;-64
2023/07/05 12:04:35;;;;;;;;;;;;;;;;;;7365573;19;1687;-63
2023/07/05 12:07:03;;;;;;;;;;;;;;;;;;7368831;19;1854;-62
2023/07/05 12:09:31;;;;;;;;;;;;;;;;;;7368166;19;1714;-63
2023/07/05 12:12:00;;;;;;;;;;;;;;;;;;7371456;19;1488;-64
2023/07/05 12:14:28;;;;;;;;;;;;;;;;;;7364090;19;1702;-63
2023/07/05 12:16:56;;;;;;;;;;;;;;;;;;7369955;19;1847;-62
2023/07/05 12:19:24;;;;;;;;;;;;;;;;;;7368857;19;1220;-63
2023/07/05 12:21:52;;;;;;;;;;;;;;;;;;7364056;19;1849;-63
2023/07/05 12:24:21;;;;;;;;;;;;;;;;;;7365351;19;1758;-61
2023/07/05 12:26:49;;;;;;;;;;;;;;;;;;7366559;19;1722;-63
2023/07/05 12:29:17;;;;;;;;;;;;;;;;;;7367735;19;1333;-62
2023/07/05 12:31:45;;;;;;;;;;;;;;;;;;7365968;19;852;-63
2023/07/05 12:34:13;;;;;;;;;;;;;;;;;;7365237;19;1598;-63
2023/07/05 12:36:42;;;;;;;;;;;;;;;;;;7367147;19;1857;-62
2023/07/05 12:39:10;;;;;;;;;;;;;;;;;;7368355;19;1634;-61
2023/07/05 12:41:38;;;;;;;;;;;;;;;;;;7367243;19;1874;-61
2023/07/05 12:44:07;;;;;;;;;;;;;;;;;;7362301;19;2045;-62
2023/07/05 12:46:36;;;;;;;;;;;;;;;;;;7367634;19;1760;-62
2023/07/05 12:49:04;;;;;;;;;;;;;;;;;;7373234;19;1478;-65
2023/07/05 12:51:32;;;;;;;;;;;;;;;;;;7372580;19;2137;-63
2023/07/05 12:54:00;;;;;;;;;;;;;;;;;;7373521;19;1724;-64
2023/07/05 12:56:28;;;;;;;;;;;;;;;;;;7374975;19;1637;-64
2023/07/05 12:58:57;;;;;;;;;;;;;;;;;;7370628;19;872;-64
2023/07/05 13:01:25;;;;;;;;;;;;;;;;;;7372000;19;1841;-63
2023/07/05 13:03:53;;;;;;;;;;;;;;;;;;7372930;19;1669;-63
2023/07/05 13:06:21;;;;;;;;;;;;;;;;;;7374822;19;1468;-62
2023/07/05 13:08:50;;;;;;;;;;;;;;;;;;7371872;19;2173;-63
2023/07/05 13:11:18;;;;;;;;;;;;;;;;;;7374725;19;1796;-63
2023/07/05 13:13:46;;;;;;;;;;;;;;;;;;7373797;19;1655;-62
2023/07/05 13:16:14;;;;;;;;;;;;;;;;;;7372193;19;2028;-62
2023/07/05 13:18:42;;;;;;;;;;;;;;;;;;7371711;19;1708;-61
2023/07/05 13:21:10;;;;;;;;;;;;;;;;;;7373259;19;1842;-63
2023/07/05 13:23:38;;;;;;;;;;;;;;;;;;7373229;19;1388;-63
2023/07/05 13:26:07;;;;;;;;;;;;;;;;;;7370800;19;778;-61
2023/07/05 13:28:35;;;;;;;;;;;;;;;;;;7371011;19;1980;-62
2023/07/05 13:31:03;;;;;;;;;;;;;;;;;;7373501;19;1725;-62
2023/07/05 13:33:31;;;;;;;;;;;;;;;;;;7369426;19;1625;-62
2023/07/05 13:35:59;;;;;;;;;;;;;;;;;;7372668;19;1679;-62
2023/07/05 13:38:29;;;;;;;;;;;;;;;;;;7367810;19;1820;-64
2023/07/05 13:40:59;;;;;;;;;;;;;;;;;;7373822;19;1868;-62
2023/07/05 13:43:27;;;;;;;;;;;;;;;;;;7370665;19;1919;-61
2023/07/05 13:45:57;;;;;;;;;;;;;;;;;;7371590;19;1955;-61
2023/07/05 13:48:25;;;;;;;;;;;;;;;;;;7369991;19;1914;-63
2023/07/05 13:50:53;;;;;;;;;;;;;;;;;;7370430;19;1718;-62
2023/07/05 13:53:21;;;;;;;;;;;;;;;;;;7368190;19;1849;-64
2023/07/05 13:55:49;;;;;;;;;;;;;;;;;;7372021;19;1617;-62
2023/07/05 13:58:17;;;;;;;;;;;;;;;;;;7370816;19;1694;-61
2023/07/05 14:00:46;;;;;;;;;;;;;;;;;;7369727;19;1874;-61
2023/07/05 14:03:14;;;;;;;;;;;;;;;;;;7369574;19;1820;-61
2023/07/05 14:05:42;;;;;;;;;;;;;;;;;;7372432;19;1604;-62
2023/07/05 14:08:10;;;;;;;;;;;;;;;;;;7371000;19;1480;-62
2023/07/05 14:10:38;;;;;;;;;;;;;;;;;;7369719;19;792;-62
2023/07/05 14:13:09;;;;;;;;;;;;;;;;;;7372361;19;1667;-62
2023/07/05 14:15:37;;;;;;;;;;;;;;;;;;7372645;19;1686;-63
2023/07/05 14:18:05;;;;;;;;;;;;;;;;;;7368637;19;837;-63
2023/07/05 14:20:34;;;;;;;;;;;;;;;;;;7370378;19;1841;-61
2023/07/05 14:23:02;;;;;;;;;;;;;;;;;;7372772;19;1378;-62
2023/07/05 14:25:31;;;;;;;;;;;;;;;;;;7371636;19;1690;-62
2023/07/05 14:28:01;;;;;;;;;;;;;;;;;;7370250;19;2002;-60
2023/07/05 14:30:29;;;;;;;;;;;;;;;;;;7372025;19;1464;-62
2023/07/05 14:32:57;;;;;;;;;;;;;;;;;;7369044;19;1587;-62
2023/07/05 14:35:25;;;;;;;;;;;;;;;;;;7371841;19;1690;-62
2023/07/05 14:37:53;;;;;;;;;;;;;;;;;;7369129;19;1601;-62
2023/07/05 14:40:22;;;;;;;;;;;;;;;;;;7372502;19;1948;-60
2023/07/05 14:42:51;;;;;;;;;;;;;;;;;;7367147;19;1845;-59
2023/07/05 14:45:20;;;;;;;;;;;;;;;;;;7371398;19;1684;-61
2023/07/05 14:47:48;;;;;;;;;;;;;;;;;;7368392;19;1636;-62
2023/07/05 14:50:16;;;;;;;;;;;;;;;;;;7370203;19;1671;-60
2023/07/05 14:52:44;;;;;;;;;;;;;;;;;;7367457;19;1287;-63
2023/07/05 14:55:12;;;;;;;;;;;;;;;;;;7371151;19;1981;-61
2023/07/05 14:57:41;;;;;;;;;;;;;;;;;;7371906;19;1235;-62
2023/07/05 15:00:09;;;;;;;;;;;;;;;;;;7366724;19;850;-62
2023/07/05 15:02:37;;;;;;;;;;;;;;;;;;7368231;19;1849;-62
2023/07/05 15:05:06;;;;;;;;;;;;;;;;;;7372348;19;1644;-62
2023/07/05 15:07:34;;;;;;;;;;;;;;;;;;7367447;19;1706;-61
2023/07/05 15:10:02;;;;;;;;;;;;;;;;;;7369676;19;1687;-62
2023/07/05 15:12:30;;;;;;;;;;;;;;;;;;7367483;19;1263;-61
2023/07/05 15:14:58;;;;;;;;;;;;;;;;;;7366686;19;1614;-61
2023/07/05 15:17:26;;;;;;;;;;;;;;;;;;7371152;19;1497;-59
2023/07/05 15:19:54;;;;;;;;;;;;;;;;;;7366622;19;792;-62
2023/07/05 15:22:22;;;;;;;;;;;;;;;;;;7367293;19;1851;-61
2023/07/05 15:24:51;;;;;;;;;;;;;;;;;;7368298;19;1510;-60
2023/07/05 15:27:19;;;;;;;;;;;;;;;;;;7366315;19;1844;-62
2023/07/05 15:29:47;;;;;;;;;;;;;;;;;;7370585;19;1633;-62
2023/07/05 15:32:15;;;;;;;;;;;;;;;;;;7369957;19;1666;-62
2023/07/05 15:34:43;;;;;;;;;;;;;;;;;;7368425;19;1457;-61
2023/07/05 15:37:11;;;;;;;;;;;;;;;;;;7366629;19;758;-63
2023/07/05 15:39:39;;;;;;;;;;;;;;;;;;7366965;19;1651;-62
2023/07/05 15:42:08;;;;;;;;;;;;;;;;;;7365859;19;1835;-61
2023/07/05 15:44:36;;;;;;;;;;;;;;;;;;7363991;19;1270;-62
2023/07/05 15:47:04;;;;;;;;;;;;;;;;;;7367381;19;1965;-62
2023/07/05 15:49:32;;;;;;;;;;;;;;;;;;7369495;19;1453;-62
2023/07/05 15:52:00;;;;;;;;;;;;;;;;;;7366408;19;855;-62
2023/07/05 15:54:28;;;;;;;;;;;;;;;;;;7365014;19;1598;-62
2023/07/05 15:56:56;;;;;;;;;;;;;;;;;;7365965;19;1797;-62
2023/07/05 15:59:32;;;;;;;;;;;;;;;;;;7368805;19;1457;-62
2023/07/05 16:02:00;;;;;;;;;;;;;;;;;;7368905;19;1849;-62
2023/07/05 16:04:30;;;;;;;;;;;;;;;;;;7368081;19;1595;-63
2023/07/05 16:06:58;;;;;;;;;;;;;;;;;;7370588;19;1650;-62
2023/07/05 16:09:26;;;;;;;;;;;;;;;;;;7366226;19;1549;-63
2023/07/05 16:11:54;;;;;;;;;;;;;;;;;;7369882;19;1614;-62
2023/07/05 16:14:23;;;;;;;;;;;;;;;;;;7366740;19;1356;-62
2023/07/05 16:16:51;;;;;;;;;;;;;;;;;;7370046;19;1325;-62
2023/07/05 16:19:19;;;;;;;;;;;;;;;;;;7365231;19;822;-62
2023/07/05 16:21:48;;;;;;;;;;;;;;;;;;7364854;19;1838;-62
2023/07/05 16:24:17;;;;;;;;;;;;;;;;;;7361539;19;1234;-62
2023/07/05 16:26:45;;;;;;;;;;;;;;;;;;7363796;19;1559;-63
2023/07/05 16:29:13;;;;;;;;;;;;;;;;;;7368389;19;1890;-63
2023/07/05 16:31:41;;;;;;;;;;;;;;;;;;7370153;19;1644;-63
2023/07/05 16:34:09;;;;;;;;;;;;;;;;;;7361943;19;1671;-62
2023/07/05 16:36:37;;;;;;;;;;;;;;;;;;7367890;19;1726;-62
2023/07/05 16:39:06;;;;;;;;;;;;;;;;;;7367417;19;2062;-63
2023/07/05 16:41:34;;;;;;;;;;;;;;;;;;7366922;19;2019;-63
2023/07/05 16:44:06;;;;;;;;;;;;;;;;;;7363751;19;1523;-62
2023/07/05 16:46:34;;;;;;;;;;;;;;;;;;7364665;19;849;-62
2023/07/05 16:49:02;;;;;;;;;;;;;;;;;;7363926;19;839;-63
2023/07/05 16:51:31;;;;;;;;;;;;;;;;;;7364882;19;754;-62
2023/07/05 16:53:59;;;;;;;;;;;;;;;;;;7362592;19;1245;-62
2023/07/05 16:56:27;;;;;;;;;;;;;;;;;;7364355;19;790;-63
2023/07/05 16:58:56;;;;;;;;;;;;;;;;;;7363966;19;821;-62
2023/07/05 17:01:24;;;;;;;;;;;;;;;;;;7363709;19;1849;-63
2023/07/05 17:03:52;;;;;;;;;;;;;;;;;;7363300;19;1269;-63
2023/07/05 17:06:22;;;;;;;;;;;;;;;;;;7363772;19;824;-63
2023/07/05 17:08:50;;;;;;;;;;;;;;;;;;7363465;19;759;-63
2023/07/05 17:11:18;;;;;;;;;;;;;;;;;;7364499;19;836;-62
2023/07/05 17:13:46;;;;;;;;;;;;;;;;;;7362356;19;1328;-62
2023/07/05 17:16:14;;;;;;;;;;;;;;;;;;7364186;19;872;-63